createdAt,value
2019-01-21T00:01:34.315Z,72.46
2019-01-21T00:09:33.537Z,76.40
2019-01-21T00:17:46.987Z,73.63
2019-01-21T00:20:17.370Z,72.05
2019-01-21T00:22:47.626Z,73.43
2019-01-21T00:25:17.804Z,71.38
2019-01-21T00:27:47.982Z,70.68
2019-01-21T00:30:18.259Z,70.88
2019-01-21T00:32:48.511Z,71.20
2019-01-21T00:35:19.003Z,71.77
2019-01-21T00:37:49.178Z,71.83
2019-01-21T00:40:19.482Z,70.64
2019-01-21T00:42:49.746Z,71.67
2019-01-21T00:45:20.013Z,70.51
2019-01-21T00:47:50.207Z,69.90
2019-01-21T00:50:20.488Z,69.70
2019-01-21T00:52:50.758Z,69.61
2019-01-21T00:55:20.957Z,69.48
2019-01-21T00:57:51.239Z,69.58
2019-01-21T01:00:23.732Z,69.88
2019-01-21T01:02:53.924Z,69.83
2019-01-21T01:08:20.848Z,69.58
2019-01-21T01:10:51.199Z,72.25
2019-01-21T01:13:21.381Z,75.80
2019-01-21T01:15:51.639Z,77.93
2019-01-21T01:18:21.949Z,76.21
2019-01-21T01:20:52.132Z,76.86
2019-01-21T01:23:22.338Z,77.48
2019-01-21T01:25:52.610Z,79.97
2019-01-21T01:28:22.882Z,77.73
2019-01-21T01:30:53.053Z,73.25
2019-01-21T01:33:23.226Z,72.52
2019-01-21T01:35:53.495Z,70.27
2019-01-21T01:38:23.653Z,68.78
2019-01-21T01:40:53.926Z,67.28
2019-01-21T01:43:24.191Z,70.02
2019-01-21T01:45:54.370Z,70.95
2019-01-21T01:48:24.522Z,70.94
2019-01-21T01:50:54.798Z,71.97
2019-01-21T01:53:25.083Z,75.14
2019-01-21T01:55:55.307Z,74.47
2019-01-21T01:58:25.481Z,74.38
2019-01-21T02:00:55.751Z,75.19
2019-01-21T02:03:26.040Z,74.61
2019-01-21T02:05:56.223Z,74.18
2019-01-21T02:13:48.607Z,71.46
2019-01-21T02:16:19.086Z,71.20
2019-01-21T02:18:49.272Z,70.16
2019-01-21T02:31:31.052Z,69.15
2019-01-21T02:37:47.249Z,71.77
2019-01-21T02:44:03.393Z,72.11
2019-01-21T02:46:55.974Z,70.92
2019-01-21T02:52:48.321Z,71.76
2019-01-21T02:55:46.885Z,69.30
2019-01-21T03:04:54.486Z,69.60
2019-01-21T03:07:56.016Z,71.63
2019-01-21T03:10:52.640Z,72.96
2019-01-21T03:16:59.448Z,70.88
2019-01-21T03:26:19.511Z,68.59
2019-01-21T03:29:13.055Z,70.86
2019-01-21T03:35:40.171Z,71.25
2019-01-21T03:38:57.401Z,70.02
2019-01-21T03:47:50.483Z,73.24
2019-01-21T03:57:07.253Z,71.93
2019-01-21T03:59:59.951Z,71.08
2019-01-21T04:03:17.348Z,71.40
2019-01-21T04:09:19.978Z,70.95
2019-01-21T04:15:52.015Z,71.77
2019-01-21T04:18:59.718Z,70.66
2019-01-21T04:28:19.899Z,70.05
2019-01-21T04:31:27.728Z,69.13
2019-01-21T04:37:30.150Z,68.96
2019-01-21T04:40:37.945Z,70.38
2019-01-21T04:46:38.279Z,70.21
2019-01-21T04:52:52.000Z,70.08
2019-01-21T04:55:59.812Z,68.79
2019-01-21T05:02:29.941Z,68.32
2019-01-21T05:05:27.531Z,67.52
2019-01-21T05:11:55.547Z,68.65
2019-01-21T05:21:03.984Z,67.00
2019-01-21T05:30:32.595Z,66.76
2019-01-21T05:36:23.308Z,68.09
2019-01-21T05:42:36.519Z,68.84
2019-01-21T05:45:44.210Z,67.79
2019-01-21T05:54:44.395Z,67.60
2019-01-21T06:00:32.772Z,67.78
2019-01-21T06:10:29.655Z,71.77
2019-01-21T06:13:37.351Z,71.50
2019-01-21T06:19:40.813Z,70.65
2019-01-21T06:22:34.810Z,68.56
2019-01-21T06:25:42.629Z,68.93
2019-01-21T06:28:50.408Z,68.56
2019-01-21T06:31:47.300Z,68.21
2019-01-21T06:37:38.582Z,68.47
2019-01-21T06:40:46.829Z,68.09
2019-01-21T06:47:02.554Z,68.68
2019-01-21T06:55:51.198Z,70.24
2019-01-21T07:02:06.427Z,66.79
2019-01-21T07:08:19.109Z,65.85
2019-01-21T07:17:50.446Z,64.07
2019-01-21T07:20:58.155Z,65.59
2019-01-21T07:24:01.455Z,64.59
2019-01-21T07:27:09.140Z,64.52
2019-01-21T07:30:17.063Z,62.20
2019-01-21T07:33:34.411Z,61.96
2019-01-21T07:36:43.485Z,62.96
2019-01-21T07:39:36.227Z,63.44
2019-01-21T07:45:56.537Z,63.73
2019-01-21T07:59:05.787Z,66.37
2019-01-21T08:05:15.427Z,64.86
2019-01-21T08:11:29.612Z,61.17
2019-01-21T08:14:22.192Z,60.74
2019-01-21T08:24:10.633Z,59.64
2019-01-21T08:27:21.898Z,60.64
2019-01-21T08:30:19.257Z,60.01
2019-01-21T08:39:39.582Z,61.30
2019-01-21T08:51:45.542Z,58.07
2019-01-21T08:54:58.998Z,55.60
2019-01-21T09:00:40.979Z,56.85
2019-01-21T09:09:21.495Z,55.18
2019-01-21T09:12:07.268Z,55.95
2019-01-21T09:21:18.994Z,55.05
2019-01-21T09:33:42.980Z,54.82
2019-01-21T10:05:02.827Z,54.10
2019-01-21T10:13:41.687Z,51.26
2019-01-21T10:25:31.933Z,51.01
2019-01-21T10:31:24.312Z,50.25
2019-01-21T10:37:18.110Z,48.08
2019-01-21T10:43:27.485Z,45.96
2019-01-21T10:46:20.774Z,41.92
2019-01-21T10:49:28.660Z,41.85
2019-01-21T10:56:16.507Z,40.41
2019-01-21T10:59:24.282Z,39.57
2019-01-21T11:08:24.494Z,34.93
2019-01-21T11:14:33.778Z,34.66
2019-01-21T11:23:17.586Z,33.83
2019-01-21T11:29:01.344Z,34.12
2019-01-21T11:41:58.298Z,31.68
2019-01-21T11:51:04.167Z,32.53
2019-01-21T11:54:07.510Z,31.69
2019-01-21T12:00:07.000Z,33.06
2019-01-21T12:15:18.950Z,33.26
2019-01-21T12:18:28.016Z,32.82
2019-01-21T12:24:48.862Z,30.28
2019-01-21T12:30:44.631Z,29.74
2019-01-21T12:36:34.169Z,31.35
2019-01-21T12:39:23.039Z,30.50
2019-01-21T12:45:39.832Z,29.43
2019-01-21T12:55:09.380Z,31.79
2019-01-21T13:04:11.267Z,33.01
2019-01-21T13:07:04.530Z,34.65
2019-01-21T13:09:57.861Z,33.84
2019-01-21T13:19:57.043Z,38.15
2019-01-21T13:28:51.671Z,35.59
2019-01-21T13:41:26.151Z,39.22
2019-01-21T13:47:44.744Z,40.39
2019-01-21T13:53:42.543Z,41.72
2019-01-21T14:03:18.272Z,43.14
2019-01-21T14:12:02.191Z,43.91
2019-01-21T14:14:41.716Z,45.78
2019-01-21T14:20:49.190Z,46.94
2019-01-21T14:39:46.338Z,47.94
2019-01-21T14:45:58.945Z,50.38
2019-01-21T15:05:07.506Z,50.73
2019-01-21T15:11:06.683Z,51.17
2019-01-21T15:14:14.627Z,52.07
2019-01-21T15:20:37.994Z,53.47
2019-01-21T15:26:28.778Z,53.56
2019-01-21T15:29:36.563Z,54.49
2019-01-21T15:35:35.085Z,54.70
2019-01-21T15:38:49.363Z,54.82
2019-01-21T15:48:27.668Z,58.59
2019-01-21T15:51:35.574Z,60.35
2019-01-21T15:54:43.481Z,60.77
2019-01-21T15:57:58.799Z,58.15
2019-01-21T16:01:06.613Z,59.65
2019-01-21T16:10:22.301Z,60.45
2019-01-21T16:13:14.458Z,58.97
2019-01-21T16:16:22.365Z,61.60
2019-01-21T16:19:13.515Z,60.24
2019-01-21T16:25:23.342Z,59.40
2019-01-21T16:34:40.974Z,59.48
2019-01-21T16:37:20.934Z,59.30
2019-01-21T16:40:26.041Z,59.72
2019-01-21T16:42:56.425Z,59.66
2019-01-21T16:45:26.759Z,60.02
2019-01-21T16:47:56.967Z,60.27
2019-01-21T16:50:27.212Z,60.67
2019-01-21T16:52:57.515Z,60.68
2019-01-21T16:55:27.801Z,62.03
2019-01-21T16:57:59.285Z,61.94
2019-01-21T17:00:30.057Z,61.05
2019-01-21T17:03:00.463Z,61.46
2019-01-21T17:05:30.728Z,61.16
2019-01-21T17:08:00.966Z,62.58
2019-01-21T17:10:31.211Z,61.45
2019-01-21T17:13:01.398Z,62.03
2019-01-21T17:15:31.642Z,63.19
2019-01-21T17:18:01.950Z,63.09
2019-01-21T17:20:32.190Z,64.21
2019-01-21T17:23:02.385Z,62.48
2019-01-21T17:25:32.676Z,61.78
2019-01-21T17:28:02.989Z,61.85
2019-01-21T17:30:33.223Z,64.29
2019-01-21T17:33:03.448Z,64.22
2019-01-21T17:35:33.691Z,62.98
2019-01-21T17:38:04.486Z,62.24
2019-01-21T17:40:34.728Z,61.97
2019-01-21T17:43:05.016Z,61.96
2019-01-21T17:45:35.257Z,61.96
2019-01-21T17:51:02.318Z,62.05
2019-01-21T17:53:32.629Z,62.98
2019-01-21T17:56:02.945Z,62.26
2019-01-21T17:58:33.346Z,62.02
2019-01-21T18:01:03.659Z,62.29
2019-01-21T18:03:33.898Z,61.37
2019-01-21T18:06:04.136Z,61.25
2019-01-21T18:08:34.797Z,61.54
2019-01-21T18:11:05.097Z,60.92
2019-01-21T18:13:35.314Z,60.63
2019-01-21T18:16:05.598Z,60.98
2019-01-21T18:18:35.889Z,60.39
2019-01-21T18:21:07.486Z,60.77
2019-01-21T18:23:38.338Z,60.60
2019-01-21T18:26:08.526Z,61.46
2019-01-21T18:28:38.818Z,60.95
2019-01-21T18:31:09.018Z,61.06
2019-01-21T18:33:39.303Z,60.88
2019-01-21T18:36:09.673Z,61.54
2019-01-21T18:38:39.870Z,61.59
2019-01-21T18:41:10.081Z,61.62
2019-01-21T18:43:40.367Z,61.55
2019-01-21T18:46:10.646Z,61.88
2019-01-21T18:48:40.845Z,64.48
2019-01-21T18:51:11.024Z,65.57
2019-01-21T18:53:41.336Z,65.96
2019-01-21T18:56:11.623Z,65.01
2019-01-21T18:58:41.822Z,64.54
2019-01-21T19:01:12.024Z,65.22
2019-01-21T19:03:42.328Z,63.99
2019-01-21T19:06:12.594Z,64.90
2019-01-21T19:08:42.835Z,63.34
2019-01-21T19:11:13.146Z,63.23
2019-01-21T19:13:43.354Z,62.80
2019-01-21T19:16:13.550Z,63.30
2019-01-21T19:18:43.839Z,62.37
2019-01-21T19:21:14.129Z,62.28
2019-01-21T19:23:44.535Z,62.74
2019-01-21T19:26:14.916Z,62.83
2019-01-21T19:28:45.214Z,61.91
2019-01-21T19:31:15.553Z,61.49
2019-01-21T19:33:45.760Z,61.36
2019-01-21T19:36:15.957Z,62.97
2019-01-21T19:38:46.228Z,62.17
2019-01-21T19:41:16.549Z,61.73
2019-01-21T19:43:46.749Z,61.50
2019-01-21T19:46:17.069Z,61.12
2019-01-21T19:48:47.388Z,60.91
2019-01-21T19:51:17.605Z,61.29
2019-01-21T19:53:47.911Z,61.84
2019-01-21T19:56:18.185Z,61.10
2019-01-21T19:58:48.779Z,60.77
2019-01-21T20:01:18.988Z,61.05
2019-01-21T20:03:49.263Z,60.98
2019-01-21T20:06:19.700Z,60.96
2019-01-21T20:08:50.031Z,61.34
2019-01-21T20:11:20.247Z,62.72
2019-01-21T20:13:50.569Z,62.80
2019-01-21T20:16:20.851Z,61.90
2019-01-21T20:18:51.051Z,61.94
2019-01-21T20:21:21.240Z,61.48
2019-01-21T20:23:51.830Z,61.07
2019-01-21T20:26:22.267Z,60.84
2019-01-21T20:28:52.490Z,61.18
2019-01-21T20:31:22.904Z,60.64
2019-01-21T20:33:53.123Z,60.41
2019-01-21T20:36:23.414Z,60.67
2019-01-21T20:38:53.724Z,60.75
2019-01-21T20:41:24.005Z,61.45
2019-01-21T20:43:54.255Z,61.34
2019-01-21T20:46:24.458Z,61.07
2019-01-21T20:48:57.471Z,61.73
2019-01-21T20:51:27.777Z,61.53
2019-01-21T20:53:58.001Z,61.76
2019-01-21T20:56:28.180Z,62.01
2019-01-21T20:58:58.490Z,62.13
2019-01-21T21:01:28.785Z,63.68
2019-01-21T21:03:58.967Z,63.80
2019-01-21T21:06:29.281Z,63.06
2019-01-21T21:08:59.581Z,62.97
2019-01-21T21:11:29.777Z,63.03
2019-01-21T21:14:00.070Z,62.81
2019-01-21T21:16:30.367Z,62.62
2019-01-21T21:19:00.566Z,62.95
2019-01-21T21:21:30.747Z,63.35
2019-01-21T21:24:01.062Z,63.39
2019-01-21T21:26:31.653Z,63.50
2019-01-21T21:29:02.254Z,63.57
2019-01-21T21:31:32.610Z,63.57
2019-01-21T21:34:02.912Z,63.51
2019-01-21T21:36:35.035Z,63.56
2019-01-21T21:42:16.050Z,63.36
2019-01-21T21:44:46.380Z,63.30
2019-01-21T21:47:16.696Z,63.54
2019-01-21T21:49:46.905Z,63.32
2019-01-21T21:52:17.195Z,63.56
2019-01-21T21:54:47.460Z,63.34
2019-01-21T21:57:17.679Z,63.24
2019-01-21T21:59:47.999Z,62.96
2019-01-21T22:02:18.321Z,63.29
2019-01-21T22:04:48.500Z,63.03
2019-01-21T22:07:18.667Z,63.78
2019-01-21T22:09:48.967Z,63.93
2019-01-21T22:12:19.271Z,63.83
2019-01-21T22:14:49.461Z,63.31
2019-01-21T22:17:19.745Z,63.26
2019-01-21T22:19:50.025Z,63.49
2019-01-21T22:22:20.325Z,62.65
2019-01-21T22:24:50.753Z,62.10
2019-01-21T22:27:22.595Z,63.90
2019-01-21T22:29:54.718Z,63.94
2019-01-21T22:32:24.916Z,63.01
2019-01-21T22:34:55.309Z,63.87
2019-01-21T22:37:25.601Z,63.96
2019-01-21T22:39:55.823Z,62.64
2019-01-21T22:42:26.036Z,62.41
2019-01-21T22:44:56.316Z,61.92
2019-01-21T22:47:26.587Z,62.11
2019-01-21T22:49:56.750Z,61.95
2019-01-21T22:52:26.938Z,61.58
2019-01-21T22:54:57.212Z,61.62
2019-01-21T22:57:27.516Z,61.53
2019-01-21T22:59:57.710Z,63.25
2019-01-21T23:02:28.056Z,65.09
2019-01-21T23:04:58.641Z,64.16
2019-01-21T23:07:28.967Z,63.67
2019-01-21T23:09:59.155Z,63.48
2019-01-21T23:12:29.411Z,63.35
2019-01-21T23:14:59.702Z,62.60
2019-01-21T23:17:30.178Z,62.75
2019-01-21T23:20:00.360Z,62.94
2019-01-21T23:22:30.563Z,62.71
2019-01-21T23:25:00.845Z,62.57
2019-01-21T23:27:31.161Z,63.09
2019-01-21T23:30:01.968Z,64.25
2019-01-21T23:32:32.178Z,65.35
2019-01-21T23:35:02.518Z,63.22
2019-01-21T23:37:32.905Z,62.85
2019-01-21T23:40:03.100Z,62.59
2019-01-21T23:42:33.293Z,62.90
2019-01-21T23:45:03.387Z,64.11
2019-01-21T23:47:33.482Z,65.58
2019-01-21T23:50:03.560Z,64.30
2019-01-21T23:52:33.452Z,63.24
2019-01-21T23:55:03.326Z,63.03
2019-01-21T23:57:33.524Z,62.81
